createdAt,value
2019-04-03T00:01:36.959Z,13.00
2019-04-03T00:04:06.733Z,13.10
2019-04-03T00:06:36.287Z,12.90
2019-04-03T00:09:07.404Z,13.00
2019-04-03T00:11:39.515Z,12.90
2019-04-03T00:14:08.412Z,12.90
2019-04-03T00:16:37.946Z,12.90
2019-04-03T00:19:07.489Z,12.80
2019-04-03T00:21:37.025Z,12.80
2019-04-03T00:24:06.922Z,12.80
2019-04-03T00:26:36.705Z,12.90
2019-04-03T00:29:06.202Z,13.00
2019-04-03T00:31:35.740Z,13.00
2019-04-03T00:34:05.312Z,13.10
2019-04-03T00:36:35.106Z,13.20
2019-04-03T00:39:07.109Z,13.30
2019-04-03T00:41:36.601Z,13.30
2019-04-03T00:44:06.419Z,13.40
2019-04-03T00:46:35.938Z,13.50
2019-04-03T00:49:05.813Z,13.50
2019-04-03T00:51:35.904Z,13.60
2019-04-03T00:54:05.674Z,13.60
2019-04-03T00:56:35.249Z,13.60
2019-04-03T00:59:05.095Z,13.60
2019-04-03T01:01:34.587Z,13.60
2019-04-03T01:04:04.643Z,13.60
2019-04-03T01:06:34.120Z,13.60
2019-04-03T01:09:05.542Z,13.60
2019-04-03T01:11:35.081Z,13.60
2019-04-03T01:14:05.348Z,13.60
2019-04-03T01:16:35.159Z,13.50
2019-04-03T01:19:05.769Z,13.50
2019-04-03T01:21:37.204Z,13.50
2019-04-03T01:24:08.340Z,13.50
2019-04-03T01:26:40.346Z,13.40
2019-04-03T01:29:10.621Z,13.40
2019-04-03T01:31:40.922Z,13.40
2019-04-03T01:34:10.411Z,13.40
2019-04-03T01:36:39.945Z,13.40
2019-04-03T01:39:09.478Z,13.40
2019-04-03T01:41:39.200Z,13.30
2019-04-03T01:44:08.986Z,13.30
2019-04-03T01:46:38.559Z,13.40
2019-04-03T01:49:08.363Z,13.40
2019-04-03T01:51:37.955Z,13.50
2019-04-03T01:54:07.480Z,13.60
2019-04-03T01:56:37.112Z,13.70
2019-04-03T01:59:07.365Z,13.60
2019-04-03T02:01:38.648Z,13.50
2019-04-03T02:04:08.500Z,13.50
2019-04-03T02:06:38.082Z,13.70
2019-04-03T02:09:10.545Z,13.30
2019-04-03T02:11:40.482Z,13.30
2019-04-03T02:14:10.253Z,13.30
2019-04-03T02:16:39.843Z,13.20
2019-04-03T02:19:09.377Z,13.30
2019-04-03T02:21:38.980Z,13.10
2019-04-03T02:24:08.750Z,13.30
2019-04-03T02:26:38.345Z,13.10
2019-04-03T02:29:08.819Z,13.10
2019-04-03T02:31:39.082Z,13.10
2019-04-03T02:34:08.833Z,13.40
2019-04-03T02:36:38.415Z,13.00
2019-04-03T02:39:08.309Z,13.10
2019-04-03T02:41:37.991Z,13.00
2019-04-03T02:44:07.567Z,13.00
2019-04-03T02:46:37.275Z,13.00
2019-04-03T02:49:09.675Z,13.20
2019-04-03T02:51:38.575Z,13.00
2019-04-03T02:54:17.675Z,12.90
2019-04-03T02:56:47.473Z,12.80
2019-04-03T02:59:16.963Z,12.80
2019-04-03T03:01:47.046Z,12.80
2019-04-03T03:04:20.558Z,12.80
2019-04-03T03:06:48.326Z,12.80
2019-04-03T03:09:17.851Z,12.80
2019-04-03T03:11:47.726Z,12.80
2019-04-03T03:14:18.218Z,12.90
2019-04-03T03:16:50.347Z,12.90
2019-04-03T03:19:19.626Z,12.90
2019-04-03T03:21:49.479Z,13.00
2019-04-03T03:24:19.797Z,13.00
2019-04-03T03:26:49.563Z,13.00
2019-04-03T03:29:24.075Z,13.00
2019-04-03T03:32:15.513Z,13.00
2019-04-03T03:34:45.782Z,13.00
2019-04-03T03:37:00.005Z,12.90
2019-04-03T03:39:26.398Z,12.80
2019-04-03T03:41:58.587Z,12.80
2019-04-03T03:44:29.314Z,12.80
2019-04-03T03:47:01.047Z,12.80
2019-04-03T03:49:31.422Z,12.50
2019-04-03T03:52:04.042Z,12.70
2019-04-03T03:54:33.109Z,12.70
2019-04-03T03:57:05.027Z,12.70
2019-04-03T03:59:34.945Z,12.60
2019-04-03T04:02:06.115Z,12.70
2019-04-03T04:04:36.348Z,12.70
2019-04-03T04:07:05.963Z,12.70
2019-04-03T04:09:36.080Z,12.50
2019-04-03T04:12:07.352Z,12.70
2019-04-03T04:14:38.269Z,12.70
2019-04-03T04:17:12.454Z,13.10
2019-04-03T04:19:40.156Z,12.70
2019-04-03T04:22:09.888Z,12.50
2019-04-03T04:24:39.972Z,12.70
2019-04-03T04:27:09.932Z,12.60
2019-04-03T04:29:41.815Z,12.70
2019-04-03T04:32:14.520Z,12.70
2019-04-03T04:34:42.934Z,12.60
2019-04-03T04:37:12.551Z,12.60
2019-04-03T04:39:42.139Z,12.60
2019-04-03T04:42:11.969Z,12.60
2019-04-03T04:44:41.638Z,12.60
2019-04-03T04:47:11.096Z,12.60
2019-04-03T04:49:40.617Z,12.60
2019-04-03T04:52:10.492Z,12.60
2019-04-03T04:54:42.795Z,12.50
2019-04-03T04:57:11.634Z,12.60
2019-04-03T04:59:41.277Z,12.60
2019-04-03T05:02:10.894Z,12.60
2019-04-03T05:04:40.757Z,12.80
2019-04-03T05:07:10.849Z,12.70
2019-04-03T05:09:40.385Z,12.40
2019-04-03T05:12:10.350Z,12.50
2019-04-03T05:14:40.143Z,12.30
2019-04-03T05:17:09.863Z,12.20
2019-04-03T05:19:39.455Z,12.10
2019-04-03T05:22:09.308Z,12.20
2019-04-03T05:24:39.641Z,12.30
2019-04-03T05:27:09.150Z,12.10
2019-04-03T05:29:38.957Z,12.40
2019-04-03T05:32:10.483Z,12.60
2019-04-03T05:34:40.069Z,12.60
2019-04-03T05:37:11.689Z,12.70
2019-04-03T05:39:40.805Z,12.70
2019-04-03T05:42:10.396Z,12.80
2019-04-03T05:44:40.192Z,12.80
2019-04-03T05:47:09.964Z,12.90
2019-04-03T05:49:39.722Z,12.90
2019-04-03T05:52:09.260Z,13.30
2019-04-03T05:54:39.316Z,13.00
2019-04-03T05:57:09.429Z,13.10
2019-04-03T05:59:39.198Z,13.10
2019-04-03T06:02:15.751Z,13.20
2019-04-03T06:04:40.886Z,13.00
2019-04-03T06:07:11.105Z,13.30
2019-04-03T06:09:40.638Z,13.30
2019-04-03T06:12:12.983Z,13.40
2019-04-03T06:14:41.658Z,13.50
2019-04-03T06:17:11.453Z,13.60
2019-04-03T06:19:40.960Z,13.60
2019-04-03T06:22:10.814Z,13.70
2019-04-03T06:24:40.390Z,13.80
2019-04-03T06:27:10.507Z,13.90
2019-04-03T06:29:40.346Z,14.00
2019-04-03T06:32:09.858Z,14.10
2019-04-03T06:34:42.698Z,14.20
2019-04-03T06:37:10.639Z,14.30
2019-04-03T06:39:40.339Z,14.30
2019-04-03T06:42:12.851Z,14.50
2019-04-03T06:44:41.067Z,14.50
2019-04-03T06:47:10.744Z,14.60
2019-04-03T06:49:41.047Z,14.60
2019-04-03T06:52:11.113Z,14.60
2019-04-03T06:54:43.847Z,14.50
2019-04-03T06:57:13.884Z,14.50
2019-04-03T06:59:43.930Z,14.40
2019-04-03T07:02:13.563Z,14.50
2019-04-03T07:04:43.347Z,14.60
2019-04-03T07:07:13.153Z,14.70
2019-04-03T07:09:42.723Z,14.90
2019-04-03T07:12:12.388Z,15.00
2019-04-03T07:14:42.246Z,15.00
2019-04-03T07:17:11.776Z,15.10
2019-04-03T07:19:41.326Z,15.20
2019-04-03T07:22:10.869Z,15.20
2019-04-03T07:24:40.402Z,15.20
2019-04-03T07:27:09.944Z,15.40
2019-04-03T07:29:39.707Z,15.40
2019-04-03T07:32:09.235Z,15.50
2019-04-03T07:34:38.800Z,15.60
2019-04-03T07:37:08.330Z,15.80
2019-04-03T07:39:38.331Z,16.00
2019-04-03T07:42:07.847Z,16.10
2019-04-03T07:44:37.638Z,16.20
2019-04-03T07:47:07.153Z,16.10
2019-04-03T07:49:37.730Z,16.20
2019-04-03T07:52:08.187Z,16.20
2019-04-03T07:54:37.740Z,16.20
2019-04-03T07:57:09.862Z,16.30
2019-04-03T07:59:38.482Z,16.30
2019-04-03T08:02:07.977Z,16.30
2019-04-03T08:04:37.664Z,16.40
2019-04-03T08:07:07.635Z,16.50
2019-04-03T08:09:37.351Z,16.60
2019-04-03T08:12:07.135Z,16.40
2019-04-03T08:14:36.647Z,16.50
2019-04-03T08:17:06.578Z,16.60
2019-04-03T08:19:36.366Z,16.70
2019-04-03T08:22:06.015Z,16.70
2019-04-03T08:24:35.572Z,16.80
2019-04-03T08:27:07.869Z,16.90
2019-04-03T08:29:38.275Z,16.90
2019-04-03T08:32:07.648Z,16.80
2019-04-03T08:34:37.189Z,16.90
2019-04-03T08:37:09.719Z,17.00
2019-04-03T08:39:38.259Z,17.10
2019-04-03T08:42:07.800Z,17.30
2019-04-03T08:44:37.703Z,17.30
2019-04-03T08:47:07.240Z,17.10
2019-04-03T08:49:36.775Z,17.10
2019-04-03T08:52:06.380Z,17.10
2019-04-03T08:54:36.158Z,17.30
2019-04-03T08:57:05.717Z,17.50
2019-04-03T08:59:35.280Z,17.60
2019-04-03T09:02:05.814Z,17.70
2019-04-03T09:04:35.978Z,17.80
2019-04-03T09:07:05.848Z,18.00
2019-04-03T09:09:36.024Z,18.20
2019-04-03T09:12:07.361Z,18.40
2019-04-03T09:14:37.115Z,18.50
2019-04-03T09:17:06.699Z,18.50
2019-04-03T09:19:36.244Z,18.50
2019-04-03T09:22:05.755Z,18.50
2019-04-03T09:24:35.321Z,18.60
2019-04-03T09:27:08.199Z,18.40
2019-04-03T09:29:36.580Z,18.00
2019-04-03T09:32:06.356Z,17.80
2019-04-03T09:34:35.966Z,17.60
2019-04-03T09:37:07.045Z,17.40
2019-04-03T09:39:36.730Z,17.40
2019-04-03T09:42:06.284Z,17.40
2019-04-03T09:44:35.804Z,17.60
2019-04-03T09:47:05.432Z,17.70
2019-04-03T09:49:34.984Z,17.60
2019-04-03T09:52:05.021Z,17.70
2019-04-03T09:54:35.000Z,17.70
2019-04-03T09:57:05.755Z,18.00
2019-04-03T09:59:37.452Z,18.20
2019-04-03T10:02:06.706Z,18.20
2019-04-03T10:04:36.605Z,18.10
2019-04-03T10:07:06.304Z,18.10
2019-04-03T10:09:38.484Z,18.30
2019-04-03T10:12:07.055Z,18.40
2019-04-03T10:14:36.622Z,18.50
2019-04-03T10:17:07.094Z,18.60
2019-04-03T10:19:37.375Z,18.60
2019-04-03T10:22:07.530Z,18.70
2019-04-03T10:24:37.562Z,18.70
2019-04-03T10:27:10.733Z,18.50
2019-04-03T10:29:38.729Z,18.30
2019-04-03T10:32:08.479Z,18.30
2019-04-03T10:34:38.014Z,18.40
2019-04-03T10:37:07.585Z,18.50
2019-04-03T10:39:40.029Z,18.40
2019-04-03T10:42:08.309Z,17.90
2019-04-03T10:44:37.874Z,17.70
2019-04-03T10:47:07.386Z,17.30
2019-04-03T10:49:36.999Z,17.00
2019-04-03T10:52:06.841Z,16.30
2019-04-03T10:54:38.026Z,15.60
2019-04-03T10:57:07.721Z,15.00
2019-04-03T10:59:37.285Z,14.70
2019-04-03T11:02:06.808Z,14.40
2019-04-03T11:04:36.402Z,14.10
2019-04-03T11:07:05.963Z,13.70
2019-04-03T11:09:35.875Z,13.50
2019-04-03T11:12:05.444Z,13.40
2019-04-03T11:14:35.024Z,12.50
2019-04-03T11:17:04.853Z,12.30
2019-04-03T11:19:36.942Z,11.80
2019-04-03T11:22:05.519Z,11.20
2019-04-03T11:24:37.721Z,11.00
2019-04-03T11:27:07.068Z,10.60
2019-04-03T11:29:36.692Z,10.40
2019-04-03T11:32:08.520Z,10.40
2019-04-03T11:34:37.434Z,10.60
2019-04-03T11:37:07.042Z,10.60
2019-04-03T11:39:37.540Z,10.30
2019-04-03T11:42:07.847Z,10.20
2019-04-03T11:44:37.440Z,9.80
2019-04-03T11:47:07.178Z,9.30
2019-04-03T11:49:36.715Z,9.60
2019-04-03T11:52:06.249Z,9.80
2019-04-03T11:54:36.991Z,9.60
2019-04-03T11:57:06.991Z,9.30
2019-04-03T11:59:36.509Z,9.50
2019-04-03T12:02:07.857Z,9.60
2019-04-03T12:04:37.925Z,9.60
2019-04-03T12:07:07.533Z,9.60
2019-04-03T12:09:37.087Z,9.50
2019-04-03T12:12:08.922Z,9.50
2019-04-03T12:14:38.094Z,9.60
2019-04-03T12:17:07.845Z,9.70
2019-04-03T12:19:37.969Z,9.60
2019-04-03T12:22:08.119Z,9.90
2019-04-03T12:24:37.641Z,9.90
2019-04-03T12:27:07.209Z,10.20
2019-04-03T12:29:36.748Z,10.10
2019-04-03T12:32:09.080Z,10.30
2019-04-03T12:34:38.286Z,10.30
2019-04-03T12:37:08.397Z,10.40
2019-04-03T12:39:37.929Z,10.50
2019-04-03T12:42:08.734Z,10.70
2019-04-03T12:44:38.917Z,10.90
2019-04-03T12:47:12.415Z,10.80
2019-04-03T12:49:39.661Z,10.80
2019-04-03T12:52:09.280Z,10.90
2019-04-03T12:54:38.866Z,11.10
2019-04-03T12:57:08.792Z,11.00
2019-04-03T12:59:40.009Z,11.10
2019-04-03T13:02:10.517Z,11.10
2019-04-03T13:04:40.441Z,11.40
2019-04-03T13:07:13.426Z,11.30
2019-04-03T13:09:41.285Z,11.30
2019-04-03T13:12:11.878Z,11.30
2019-04-03T13:14:41.999Z,11.40
2019-04-03T13:17:13.511Z,11.50
2019-04-03T13:19:43.023Z,11.70
2019-04-03T13:22:12.641Z,11.70
2019-04-03T13:24:42.217Z,12.00
2019-04-03T13:27:12.360Z,12.30
2019-04-03T13:29:41.864Z,12.70
2019-04-03T13:32:11.503Z,13.10
2019-04-03T13:34:42.691Z,13.50
2019-04-03T13:37:12.382Z,13.80
2019-04-03T13:39:42.154Z,14.10
2019-04-03T13:42:13.909Z,14.20
2019-04-03T13:44:43.176Z,14.20
2019-04-03T13:47:12.783Z,14.30
2019-04-03T13:49:42.327Z,14.20
2019-04-03T13:52:12.163Z,14.50
2019-04-03T13:54:41.770Z,14.80
2019-04-03T13:57:11.885Z,15.00
2019-04-03T13:59:42.708Z,14.90
2019-04-03T14:02:13.601Z,15.00
2019-04-03T14:04:43.574Z,15.20
2019-04-03T14:07:13.438Z,15.50
2019-04-03T14:09:42.991Z,15.70
2019-04-03T14:12:12.831Z,15.80
2019-04-03T14:14:42.510Z,15.90
2019-04-03T14:17:13.849Z,15.90
2019-04-03T14:19:46.709Z,16.00
2019-04-03T14:22:14.629Z,16.10
2019-04-03T14:24:47.483Z,16.20
2019-04-03T14:27:22.745Z,16.30
2019-04-03T14:29:47.208Z,16.30
2019-04-03T14:32:18.456Z,16.20
2019-04-03T14:34:48.060Z,16.10
2019-04-03T14:37:17.652Z,16.00
2019-04-03T14:39:47.487Z,15.90
2019-04-03T14:42:17.007Z,15.80
2019-04-03T14:44:47.032Z,15.80
2019-04-03T14:47:16.935Z,15.90
2019-04-03T14:49:46.813Z,16.00
2019-04-03T14:52:16.863Z,16.30
2019-04-03T14:54:47.157Z,16.70
2019-04-03T14:57:22.440Z,17.20
2019-04-03T14:59:48.061Z,17.80
2019-04-03T15:02:18.032Z,18.30
2019-04-03T15:04:48.085Z,18.50
2019-04-03T15:07:18.739Z,18.40
2019-04-03T15:09:48.639Z,18.30
2019-04-03T15:12:18.214Z,18.10
2019-04-03T15:14:48.160Z,17.80
2019-04-03T15:17:18.250Z,17.60
2019-04-03T15:19:48.349Z,17.30
2019-04-03T15:22:17.964Z,17.10
2019-04-03T15:24:48.022Z,17.00
2019-04-03T15:27:18.024Z,17.00
2019-04-03T15:29:47.637Z,17.10
2019-04-03T15:32:18.636Z,17.00
2019-04-03T15:34:50.643Z,16.80
2019-04-03T15:37:20.016Z,16.30
2019-04-03T15:39:56.454Z,16.10
2019-04-03T15:42:20.977Z,16.00
2019-04-03T15:44:52.102Z,16.00
2019-04-03T15:47:33.907Z,16.10
2019-04-03T15:49:53.289Z,16.20
2019-04-03T15:52:22.898Z,16.30
2019-04-03T15:54:53.193Z,16.40
2019-04-03T15:57:23.219Z,16.40
2019-04-03T15:59:53.390Z,16.40
2019-04-03T16:02:23.684Z,16.40
2019-04-03T16:04:53.837Z,16.30
2019-04-03T16:07:23.424Z,16.20
2019-04-03T16:09:53.008Z,16.10
2019-04-03T16:12:22.619Z,15.90
2019-04-03T16:14:52.159Z,15.70
2019-04-03T16:17:22.158Z,15.60
2019-04-03T16:19:52.902Z,15.60
2019-04-03T16:22:22.946Z,15.50
2019-04-03T16:24:53.824Z,15.40
2019-04-03T16:27:29.118Z,15.30
2019-04-03T16:29:57.833Z,15.30
2019-04-03T16:32:28.257Z,15.20
2019-04-03T16:34:58.879Z,15.10
2019-04-03T16:37:28.721Z,15.00
2019-04-03T16:39:58.248Z,15.00
2019-04-03T16:42:27.874Z,14.90
2019-04-03T16:44:58.342Z,14.90
2019-04-03T16:47:28.135Z,14.90
2019-04-03T16:49:57.716Z,14.80
2019-04-03T16:52:30.102Z,14.80
2019-04-03T16:54:58.824Z,14.80
2019-04-03T16:57:28.688Z,14.70
2019-04-03T16:59:58.621Z,14.60
2019-04-03T17:02:29.785Z,14.30
2019-04-03T17:04:59.690Z,14.10
2019-04-03T17:07:29.296Z,14.00
2019-04-03T17:09:59.465Z,13.90
2019-04-03T17:12:29.316Z,13.90
2019-04-03T17:14:59.295Z,13.80
2019-04-03T17:17:29.242Z,13.60
2019-04-03T17:19:59.087Z,13.40
2019-04-03T17:22:28.702Z,13.10
2019-04-03T17:24:58.996Z,12.90
2019-04-03T17:27:30.194Z,13.00
2019-04-03T17:30:00.173Z,13.00
2019-04-03T17:32:31.174Z,13.10
2019-04-03T17:35:01.619Z,13.00
2019-04-03T17:37:31.153Z,13.10
2019-04-03T17:40:00.896Z,13.10
2019-04-03T17:42:30.512Z,12.90
2019-04-03T17:45:00.156Z,12.90
2019-04-03T17:47:29.722Z,12.80
2019-04-03T17:49:59.910Z,12.70
2019-04-03T17:52:29.579Z,12.60
2019-04-03T17:54:59.458Z,12.50
2019-04-03T17:57:29.100Z,12.40
2019-04-03T17:59:58.978Z,12.40
2019-04-03T18:02:30.027Z,12.30
2019-04-03T18:04:59.627Z,12.30
2019-04-03T18:07:29.297Z,12.20
2019-04-03T18:09:59.133Z,12.20
2019-04-03T18:12:28.745Z,12.10
2019-04-03T18:14:58.615Z,12.10
2019-04-03T18:17:28.157Z,12.10
2019-04-03T18:19:57.902Z,12.20
2019-04-03T18:22:27.456Z,12.00
2019-04-03T18:24:57.049Z,12.00
2019-04-03T18:27:26.650Z,12.00
2019-04-03T18:29:56.469Z,12.10
2019-04-03T18:32:26.058Z,12.10
2019-04-03T18:34:55.939Z,12.20
2019-04-03T18:37:25.484Z,12.20
2019-04-03T18:39:55.135Z,12.40
2019-04-03T18:42:24.940Z,12.20
2019-04-03T18:44:55.962Z,12.30
2019-04-03T18:47:25.821Z,12.10
2019-04-03T18:49:55.685Z,12.10
2019-04-03T18:52:25.333Z,12.00
2019-04-03T18:54:54.948Z,12.00
2019-04-03T18:57:24.620Z,11.80
2019-04-03T18:59:56.223Z,11.60
2019-04-03T19:02:25.772Z,11.50
2019-04-03T19:05:01.725Z,11.50
2019-04-03T19:07:27.262Z,11.50
2019-04-03T19:10:06.243Z,11.20
2019-04-03T19:12:35.643Z,11.20
2019-04-03T19:15:02.527Z,11.10
2019-04-03T19:17:30.938Z,11.00
2019-04-03T19:20:10.183Z,11.00
2019-04-03T19:22:32.135Z,11.00
2019-04-03T19:25:01.738Z,11.00
2019-04-03T19:27:33.018Z,11.00
2019-04-03T19:30:02.648Z,10.80
2019-04-03T19:32:32.273Z,10.50
2019-04-03T19:35:02.161Z,10.50
2019-04-03T19:37:34.082Z,10.20
2019-04-03T19:40:03.185Z,9.90
2019-04-03T19:42:32.768Z,9.80
2019-04-03T19:45:02.371Z,9.80
2019-04-03T19:47:32.533Z,9.60
2019-04-03T19:50:02.269Z,9.90
2019-04-03T19:52:31.877Z,9.60
2019-04-03T19:55:02.642Z,9.70
2019-04-03T19:57:34.223Z,9.80
2019-04-03T20:00:04.031Z,9.80
2019-04-03T20:02:33.641Z,9.80
2019-04-03T20:05:03.515Z,10.00
2019-04-03T20:07:34.299Z,10.00
2019-04-03T20:10:05.987Z,10.30
2019-04-03T20:12:35.807Z,10.10
2019-04-03T20:15:07.501Z,10.20
2019-04-03T20:17:37.191Z,10.10
2019-04-03T20:20:07.423Z,10.30
2019-04-03T20:22:37.880Z,10.30
2019-04-03T20:25:08.955Z,10.10
2019-04-03T20:27:38.625Z,10.20
2019-04-03T20:30:09.758Z,10.30
2019-04-03T20:32:40.844Z,10.10
2019-04-03T20:35:10.702Z,10.00
2019-04-03T20:37:40.338Z,10.10
2019-04-03T20:40:11.593Z,10.00
2019-04-03T20:42:41.610Z,9.80
2019-04-03T20:45:11.254Z,10.10
2019-04-03T20:47:40.895Z,10.00
2019-04-03T20:50:10.480Z,10.30
2019-04-03T20:52:40.094Z,10.00
2019-04-03T20:55:09.856Z,10.30
2019-04-03T20:57:39.514Z,10.30
2019-04-03T21:00:13.618Z,10.30
2019-04-03T21:02:43.323Z,10.20
2019-04-03T21:05:13.460Z,10.10
2019-04-03T21:07:43.310Z,10.20
2019-04-03T21:10:13.160Z,10.30
2019-04-03T21:12:42.699Z,10.10
2019-04-03T21:15:14.209Z,10.10
2019-04-03T21:17:43.721Z,10.30
2019-04-03T21:20:13.613Z,10.20
2019-04-03T21:22:43.548Z,10.00
2019-04-03T21:25:13.460Z,10.00
2019-04-03T21:27:43.041Z,9.80
2019-04-03T21:30:13.117Z,9.90
2019-04-03T21:32:42.724Z,9.80
2019-04-03T21:35:12.511Z,9.80
2019-04-03T21:37:42.129Z,9.90
2019-04-03T21:40:14.730Z,9.90
2019-04-03T21:42:43.209Z,9.80
2019-04-03T21:45:13.346Z,9.80
2019-04-03T21:47:43.287Z,10.20
2019-04-03T21:50:12.955Z,10.10
2019-04-03T21:52:42.533Z,9.90
2019-04-03T21:55:12.619Z,10.20
2019-04-03T21:57:42.513Z,9.90
2019-04-03T22:00:14.437Z,9.90
2019-04-03T22:02:45.237Z,10.10
2019-04-03T22:05:15.026Z,10.20
2019-04-03T22:07:44.906Z,10.00
2019-04-03T22:10:15.091Z,10.20
2019-04-03T22:12:44.735Z,10.10
2019-04-03T22:15:14.586Z,10.20
2019-04-03T22:17:44.267Z,10.20
2019-04-03T22:20:13.990Z,10.00
2019-04-03T22:22:43.848Z,10.10
2019-04-03T22:25:14.003Z,10.30
2019-04-03T22:27:43.722Z,10.30
2019-04-03T22:30:13.652Z,10.30
2019-04-03T22:32:43.493Z,10.10
2019-04-03T22:35:14.001Z,10.20
2019-04-03T22:37:43.866Z,10.20
2019-04-03T22:40:13.494Z,10.00
2019-04-03T22:42:45.353Z,10.10
2019-04-03T22:45:14.373Z,10.10
2019-04-03T22:47:47.422Z,9.90
2019-04-03T22:50:15.786Z,10.00
2019-04-03T22:52:45.427Z,10.30
2019-04-03T22:55:15.484Z,10.00
2019-04-03T22:57:45.606Z,10.10
2019-04-03T23:00:15.346Z,10.30
2019-04-03T23:02:44.978Z,10.10
2019-04-03T23:05:16.900Z,10.30
2019-04-03T23:07:46.382Z,10.40
2019-04-03T23:10:15.981Z,10.40
2019-04-03T23:12:45.645Z,10.40
2019-04-03T23:15:15.263Z,10.30
2019-04-03T23:17:45.433Z,10.30
2019-04-03T23:20:15.109Z,10.20
2019-04-03T23:22:44.762Z,10.30
2019-04-03T23:25:14.392Z,10.30
2019-04-03T23:27:44.111Z,10.10
2019-04-03T23:30:13.865Z,10.20
2019-04-03T23:32:45.745Z,10.20
2019-04-03T23:35:15.101Z,10.00
2019-04-03T23:37:45.730Z,10.20
2019-04-03T23:40:15.443Z,10.10
2019-04-03T23:42:45.112Z,10.20
2019-04-03T23:45:15.317Z,10.30
2019-04-03T23:47:46.713Z,10.30
2019-04-03T23:50:16.329Z,10.30
2019-04-03T23:52:45.992Z,10.30
2019-04-03T23:55:15.598Z,10.30
2019-04-03T23:57:45.238Z,10.20
